SBLO Informações do Aeroporto

Informações da Pista
Pista 13 Comprimento 6890 ft Largura 148 ft
Elevação 0 ft Limite 0 ft Heading 0
Pista 31 Comprimento 6890 ft Largura 148 ft
Elevação 0 ft Limite 0 ft Heading 0
Frequências do Aeroporto
Tipo APP Nome APP Frequência 129.7 MHZ
Tipo ATIS Nome ATIS Frequência 127.675 MHZ
Tipo TWR Nome TWR Frequência 118.4 MHZ
Navaids do Aeroporto
Tipo VOR-DME Nome Londrina Frequência 112400 KHZ
Tipo NDB Nome Londrina Frequência 365 KHZ
Tipo NDB Nome Guaruja Frequência 305 KHZ
Informações meteorológicas do aeroporto e NOTAM
ADDS - METARS form results

(0655 UTC 18 August 2019)
Data provider http://aviationweather.gov/metar/data/
 
METAR text: SBLO 180600Z 00000KT CAVOK 20/11 Q1016
Conditions at: SBLO (LONDRINA AIRPORT, BR) observed 0600 UTC 18 August 2019
Temperature: 20.0°C (68°F)
Dewpoint: 11.0°C (52°F) [RH = 56%]
Pressure (altimeter): 30.00 inches Hg (1016.0 mb)
Winds: calm
Visibility: 6 or more miles (10+ km)
Ceiling: ceiling and visibility are OK
Clouds: unknown
Weather: no significant weather observed at this time

Forecast for: SBLO (LONDRINA AIRPORT, BR)
Text: TAF SBLO 180130Z 1806/1818 00000KT CAVOK TN19/1808Z TX32/1817Z RMK PEB
Forecast period: 0600 to 1800 UTC 18 August 2019
Forecast type: FROM: standard forecast or significant change
Winds: calm
Visibility: 6 or more miles 10+ km)
Ceiling: unknown
Clouds: missing
Weather: no significant weather forecast for this period